Time;durP1;ratioP1;P1;durP2;ratioP2;P2;SDS_P1;SDS_P2;PMS_P1;PMS_P2;Temp;Humidity;BMP_temperature;BMP_pressure;BME280_temperature;BME280_humidity;BME280_pressure;Samples;Min_cycle;Max_cycle;Signal;HPM_P1;HPM_P2
2023/03/06 00:02:36;;;;;;;10.25;5.18;;;;;;;-5.16;89.87;98818.75;10591806;28;20031;-78
2023/03/06 00:07:38;;;;;;;8.80;4.65;;;;;;;-5.16;89.68;98823.28;10608616;28;20047;-78
2023/03/06 00:12:44;;;;;;;11.43;5.05;;;;;;;-5.07;89.71;98821.09;10610043;27;20047;-79
2023/03/06 00:17:47;;;;;;;9.65;5.13;;;;;;;-5.14;90.07;98825.72;10600925;28;20498;-79
2023/03/06 00:22:49;;;;;;;7.20;4.75;;;;;;;-5.34;90.11;98821.41;10579646;28;20044;-79
2023/03/06 00:28:13;;;;;;;8.77;5.30;;;;;;;-5.33;89.61;98820.38;10597100;27;20512;-80
2023/03/06 00:33:16;;;;;;;8.75;4.70;;;;;;;-5.01;89.40;98817.53;10616778;27;20043;-79
2023/03/06 00:38:26;;;;;;;9.55;4.95;;;;;;;-5.21;88.95;98815.09;10606486;28;20621;-79
2023/03/06 00:43:28;;;;;;;7.07;4.13;;;;;;;-5.35;89.15;98813.63;10594183;28;20044;-80
2023/03/06 00:48:55;;;;;;;7.03;4.10;;;;;;;-5.32;89.43;98810.50;10621556;28;20039;-78
2023/03/06 00:54:01;;;;;;;8.68;5.10;;;;;;;-5.44;89.33;98805.06;10603558;28;20053;-79
2023/03/06 00:59:04;;;;;;;7.65;4.80;;;;;;;-5.55;89.25;98816.53;10618612;28;20581;-78
2023/03/06 01:04:06;;;;;;;12.68;5.22;;;;;;;-5.50;90.07;98809.47;10623739;28;20039;-78
2023/03/06 01:09:08;;;;;;;7.80;4.43;;;;;;;-5.40;90.04;98818.81;10612024;28;20074;-79
2023/03/06 01:14:36;;;;;;;7.93;4.43;;;;;;;-5.46;90.10;98820.53;10589711;28;20036;-78
2023/03/06 01:19:38;;;;;;;6.63;3.67;;;;;;;-5.49;90.11;98815.63;10575521;28;20498;-80
2023/03/06 01:24:40;;;;;;;8.18;4.13;;;;;;;-5.54;90.13;98810.13;10611266;27;20040;-78
2023/03/06 01:29:42;;;;;;;6.70;4.05;;;;;;;-5.54;90.11;98820.81;10617832;27;20043;-79
2023/03/06 01:34:45;;;;;;;6.68;4.07;;;;;;;-5.37;90.63;98829.88;10629053;27;20035;-79
2023/03/06 01:39:47;;;;;;;8.23;4.43;;;;;;;-5.48;90.40;98825.28;10633970;27;20039;-79
2023/03/06 01:45:06;;;;;;;7.88;4.00;;;;;;;-5.61;90.34;98825.41;10616443;27;20040;-78
2023/03/06 01:50:12;;;;;;;6.22;3.90;;;;;;;-5.48;90.25;98822.59;10614998;27;20039;-78
2023/03/06 01:55:31;;;;;;;7.75;4.10;;;;;;;-5.58;89.89;98820.44;10613895;27;20491;-80
2023/03/06 02:00:38;;;;;;;5.38;3.63;;;;;;;-5.40;90.36;98830.31;10592328;28;20047;-80
2023/03/06 02:05:41;;;;;;;5.93;3.72;;;;;;;-5.30;90.24;98822.59;10611998;28;20410;-78
2023/03/06 02:11:14;;;;;;;6.57;3.85;;;;;;;-5.46;89.75;98817.84;10575495;28;20051;-78
2023/03/06 02:16:24;;;;;;;6.38;3.95;;;;;;;-5.35;90.37;98817.13;10573490;28;20039;-77
2023/03/06 02:21:32;;;;;;;6.25;4.00;;;;;;;-5.38;90.39;98812.22;10595787;27;20043;-78
2023/03/06 02:26:35;;;;;;;7.78;3.95;;;;;;;-5.23;90.75;98812.63;10609051;27;20043;-78
2023/03/06 02:31:41;;;;;;;7.53;4.20;;;;;;;-5.13;90.67;98813.97;10578355;28;20040;-77
2023/03/06 02:36:53;;;;;;;7.43;4.40;;;;;;;-5.11;90.47;98804.69;10589116;28;20039;-77
2023/03/06 02:41:55;;;;;;;7.50;3.70;;;;;;;-5.14;90.16;98807.81;10588615;28;20051;-78
2023/03/06 02:46:58;;;;;;;6.38;4.40;;;;;;;-5.10;89.93;98805.50;10550615;28;20420;-78
2023/03/06 02:52:06;;;;;;;9.00;4.60;;;;;;;-5.02;90.17;98797.19;10578784;28;20051;-78
2023/03/06 02:57:14;;;;;;;7.07;4.75;;;;;;;-4.85;90.42;98798.19;10618623;27;20120;-80
2023/03/06 03:02:17;;;;;;;6.43;3.95;;;;;;;-4.75;90.37;98797.63;10574560;28;20044;-79
2023/03/06 03:07:20;;;;;;;7.35;4.50;;;;;;;-4.38;90.18;98801.00;10589863;28;20067;-78
2023/03/06 03:12:22;;;;;;;5.28;3.95;;;;;;;-4.28;89.86;98794.03;10590420;28;20035;-79
2023/03/06 03:17:25;;;;;;;6.43;4.03;;;;;;;-4.38;89.79;98799.13;10592709;28;20043;-78
2023/03/06 03:22:27;;;;;;;6.18;3.78;;;;;;;-4.45;89.51;98797.63;10613196;28;20047;-78
2023/03/06 03:27:29;;;;;;;6.05;3.40;;;;;;;-4.44;89.60;98804.59;10585753;28;20061;-78
2023/03/06 03:32:32;;;;;;;6.30;4.30;;;;;;;-4.50;89.29;98795.63;10597405;27;20039;-78
2023/03/06 03:37:35;;;;;;;8.20;3.95;;;;;;;-4.48;90.04;98796.22;10597641;28;20046;-79
2023/03/06 03:42:38;;;;;;;10.10;4.68;;;;;;;-4.56;90.44;98796.53;10591953;28;20044;-79
2023/03/06 03:47:41;;;;;;;8.70;4.60;;;;;;;-4.51;90.23;98804.72;10582410;28;20047;-79
2023/03/06 03:52:44;;;;;;;8.07;5.28;;;;;;;-4.32;90.02;98797.41;10589286;27;20034;-79
2023/03/06 03:57:47;;;;;;;10.98;5.55;;;;;;;-4.03;89.94;98803.72;10613294;27;20451;-79
2023/03/06 04:02:50;;;;;;;11.75;6.20;;;;;;;-3.89;89.52;98801.66;10608580;27;20043;-79
2023/03/06 04:08:03;;;;;;;14.52;7.72;;;;;;;-3.68;88.58;98801.06;10604582;27;20063;-79
2023/03/06 04:13:06;;;;;;;12.77;7.22;;;;;;;-3.77;88.16;98799.78;10614507;27;20129;-78
2023/03/06 04:18:09;;;;;;;14.07;7.93;;;;;;;-3.71;87.77;98793.47;10593236;28;20042;-77
2023/03/06 04:23:12;;;;;;;11.43;6.43;;;;;;;-3.73;87.69;98796.41;10562734;28;20051;-79
2023/03/06 04:28:15;;;;;;;10.43;6.20;;;;;;;-3.76;88.14;98793.38;10570189;28;20510;-79
2023/03/06 04:33:17;;;;;;;9.32;4.80;;;;;;;-3.71;88.45;98802.34;10606832;28;20042;-78
2023/03/06 04:38:20;;;;;;;9.75;5.38;;;;;;;-3.55;88.88;98790.09;10581746;28;20047;-78
2023/03/06 04:43:22;;;;;;;10.40;5.13;;;;;;;-3.59;88.65;98791.63;10576528;28;20051;-79
2023/03/06 04:48:25;;;;;;;9.63;4.60;;;;;;;-3.61;88.31;98785.69;10612786;28;20044;-78
2023/03/06 04:53:27;;;;;;;9.35;4.70;;;;;;;-3.66;88.92;98781.00;10609667;28;20500;-79
2023/03/06 04:58:29;;;;;;;7.18;4.10;;;;;;;-3.46;88.97;98779.84;10634225;27;20040;-79
2023/03/06 05:03:32;;;;;;;8.43;4.15;;;;;;;-3.61;88.82;98774.97;10596158;28;20043;-79
2023/03/06 05:08:34;;;;;;;9.15;4.38;;;;;;;-3.60;89.47;98775.78;10600614;28;20048;-79
2023/03/06 05:13:36;;;;;;;7.60;4.15;;;;;;;-3.58;89.73;98774.47;10590143;28;20040;-78
2023/03/06 05:18:38;;;;;;;8.38;4.72;;;;;;;-3.48;89.30;98768.50;10608787;28;20040;-78
2023/03/06 05:23:40;;;;;;;11.45;4.40;;;;;;;-3.58;89.18;98781.72;10609315;28;20069;-79
2023/03/06 05:28:43;;;;;;;8.25;4.53;;;;;;;-3.56;88.84;98774.25;10574530;28;20032;-80
2023/03/06 05:33:46;;;;;;;6.65;3.95;;;;;;;-3.50;88.67;98771.44;10607423;28;20547;-78
2023/03/06 05:38:49;;;;;;;5.93;3.50;;;;;;;-3.37;87.90;98771.19;10602627;28;20043;-78
2023/03/06 05:43:52;;;;;;;5.60;3.53;;;;;;;-3.00;87.89;98756.59;10609226;28;20043;-80
2023/03/06 05:48:56;;;;;;;8.02;3.85;;;;;;;-2.64;85.90;98761.56;10608300;28;20074;-79
2023/03/06 05:53:58;;;;;;;5.72;3.38;;;;;;;-1.97;83.70;98755.41;10606665;28;20066;-79
2023/03/06 05:59:00;;;;;;;5.93;3.55;;;;;;;-1.62;81.40;98760.50;10608071;28;20415;-80
2023/03/06 06:04:03;;;;;;;5.88;3.53;;;;;;;-1.71;80.15;98765.50;10608218;28;20518;-79
2023/03/06 06:09:05;;;;;;;6.00;3.88;;;;;;;-2.20;81.26;98767.97;10614891;28;20055;-78
2023/03/06 06:14:09;;;;;;;5.95;3.40;;;;;;;-2.52;82.12;98770.38;10594872;28;20043;-79
2023/03/06 06:19:17;;;;;;;7.45;3.90;;;;;;;-2.46;83.04;98773.97;10607396;28;20404;-78
2023/03/06 06:24:22;;;;;;;5.68;3.58;;;;;;;-2.37;83.87;98777.91;10616968;28;20058;-77
2023/03/06 06:29:26;;;;;;;8.25;4.93;;;;;;;-2.19;83.45;98777.66;10587167;28;20047;-78
2023/03/06 06:34:29;;;;;;;8.90;4.53;;;;;;;-2.17;82.70;98775.53;10604216;28;20036;-79
2023/03/06 06:39:32;;;;;;;10.65;4.50;;;;;;;-2.18;82.06;98781.97;10586302;28;20039;-79
2023/03/06 06:44:35;;;;;;;7.65;4.03;;;;;;;-2.27;82.17;98778.03;10616539;28;20059;-78
2023/03/06 06:49:39;;;;;;;7.38;4.07;;;;;;;-2.52;82.65;98783.00;10595727;28;20413;-77
2023/03/06 06:54:42;;;;;;;12.27;6.63;;;;;;;-2.64;83.45;98782.22;10606786;28;20498;-78
2023/03/06 06:59:44;;;;;;;7.53;4.38;;;;;;;-2.57;83.63;98783.72;10616053;28;20485;-78
2023/03/06 07:04:46;;;;;;;8.23;4.28;;;;;;;-2.48;83.96;98776.91;10614564;28;20054;-77
2023/03/06 07:09:49;;;;;;;5.55;3.75;;;;;;;-2.33;84.19;98776.34;10614297;28;20043;-79
2023/03/06 07:14:51;;;;;;;6.85;3.60;;;;;;;-2.28;83.37;98781.78;10612971;28;20039;-76
2023/03/06 07:19:53;;;;;;;10.15;3.90;;;;;;;-2.55;83.01;98784.31;10611058;28;20040;-78
2023/03/06 07:24:55;;;;;;;6.03;3.70;;;;;;;-2.40;83.27;98778.38;10602080;28;20036;-78
2023/03/06 07:29:57;;;;;;;8.23;4.30;;;;;;;-2.14;82.40;98782.28;10578882;28;20058;-78
2023/03/06 07:34:59;;;;;;;8.15;3.80;;;;;;;-2.16;82.07;98789.78;10594897;27;20042;-78
2023/03/06 07:40:03;;;;;;;5.63;3.47;;;;;;;-2.46;81.69;98787.38;10608687;28;20036;-78
2023/03/06 07:45:07;;;;;;;6.65;3.90;;;;;;;-2.49;81.72;98802.13;10608552;28;20055;-78
2023/03/06 07:50:10;;;;;;;7.13;3.97;;;;;;;-2.30;80.86;98799.22;10606409;28;20043;-78
2023/03/06 07:55:38;;;;;;;7.32;3.92;;;;;;;-2.09;80.10;98795.81;10592063;28;20043;-77
2023/03/06 08:00:40;;;;;;;5.80;3.55;;;;;;;-1.81;79.43;98792.22;10614234;28;20036;-78
2023/03/06 08:05:43;;;;;;;10.15;3.92;;;;;;;-1.70;79.42;98794.00;10592239;28;20069;-77
2023/03/06 08:10:48;;;;;;;8.48;4.43;;;;;;;-1.83;78.99;98792.47;10610840;28;20052;-78
2023/03/06 08:15:50;;;;;;;5.97;4.38;;;;;;;-1.65;78.99;98790.56;10581315;28;20032;-79
2023/03/06 08:21:03;;;;;;;9.25;3.83;;;;;;;-1.77;79.44;98796.03;10597586;28;20058;-79
2023/03/06 08:26:11;;;;;;;8.90;5.07;;;;;;;-1.76;79.60;98794.97;10599239;28;20050;-78
2023/03/06 08:31:28;;;;;;;7.00;3.83;;;;;;;-1.75;79.84;98804.66;10589861;28;20036;-79
2023/03/06 08:36:30;;;;;;;7.70;4.30;;;;;;;-1.67;79.45;98806.97;10593311;28;20039;-78
2023/03/06 08:41:33;;;;;;;8.70;4.00;;;;;;;-1.68;79.10;98810.72;10615228;28;20054;-78
2023/03/06 08:46:35;;;;;;;7.53;4.45;;;;;;;-1.70;79.42;98812.00;10582216;28;20035;-79
2023/03/06 08:51:37;;;;;;;7.70;4.40;;;;;;;-1.63;78.69;98809.97;10601771;28;20046;-78
2023/03/06 08:56:40;;;;;;;7.30;4.03;;;;;;;-1.23;78.34;98815.09;10617622;28;20043;-80
2023/03/06 09:01:43;;;;;;;6.65;3.00;;;;;;;-0.98;77.48;98815.41;10559891;28;20400;-79
2023/03/06 09:06:46;;;;;;;6.57;3.35;;;;;;;-1.27;77.06;98824.72;10619329;28;20035;-78
2023/03/06 09:11:50;;;;;;;6.40;3.20;;;;;;;-1.42;77.19;98822.63;10588145;28;20385;-78
2023/03/06 09:16:56;;;;;;;4.57;3.00;;;;;;;-1.22;77.38;98812.13;10619363;28;20050;-79
2023/03/06 09:21:59;;;;;;;7.20;2.83;;;;;;;-1.04;76.84;98819.13;10580877;28;20044;-79
2023/03/06 09:27:02;;;;;;;6.03;3.22;;;;;;;-1.01;77.32;98824.00;10590647;28;20052;-80
2023/03/06 09:32:04;;;;;;;5.15;3.05;;;;;;;-1.14;76.71;98829.75;10589624;28;20040;-79
2023/03/06 09:37:29;;;;;;;4.35;2.63;;;;;;;-1.15;76.51;98828.13;10606447;28;20035;-80
2023/03/06 09:42:32;;;;;;;4.60;2.80;;;;;;;-1.28;77.09;98833.84;10589969;28;20039;-80
2023/03/06 09:47:47;;;;;;;5.32;2.97;;;;;;;-1.24;76.81;98834.97;10597743;28;20053;-81
2023/03/06 09:53:15;;;;;;;3.88;2.53;;;;;;;-1.33;76.63;98823.84;10574325;28;20036;-79
2023/03/06 09:58:24;;;;;;;3.47;1.90;;;;;;;-1.66;76.42;98832.78;10580036;28;20036;-79
2023/03/06 10:03:37;;;;;;;4.13;2.60;;;;;;;-1.57;76.92;98831.28;10605313;28;20048;-80
2023/03/06 10:08:51;;;;;;;4.32;1.95;;;;;;;-1.69;76.92;98838.66;10628869;28;20090;-79
2023/03/06 10:14:06;;;;;;;5.00;2.22;;;;;;;-1.70;77.52;98837.03;10628261;28;20035;-80
2023/03/06 10:19:14;;;;;;;4.20;2.78;;;;;;;-1.70;77.99;98841.59;10585781;28;20050;-79
2023/03/06 10:24:38;;;;;;;4.60;2.20;;;;;;;-1.41;78.23;98839.59;10628428;28;20039;-78
2023/03/06 10:30:31;;;;;;;4.43;1.95;;;;;;;-1.31;77.32;98832.47;10607048;28;20042;-80
2023/03/06 10:36:03;;;;;;;3.17;2.05;;;;;;;-1.08;76.91;98836.00;10612492;28;20035;-81
2023/03/06 10:41:09;;;;;;;5.88;2.20;;;;;;;-1.11;76.17;98834.63;10589137;28;20164;-78
2023/03/06 10:46:13;;;;;;;4.00;1.70;;;;;;;-0.87;75.71;98832.50;10624375;28;20579;-79
2023/03/06 10:51:19;;;;;;;1.95;1.27;;;;;;;-0.84;75.04;98832.00;10597551;28;20484;-80
2023/03/06 10:56:33;;;;;;;2.10;1.60;;;;;;;-0.69;75.00;98834.06;10560034;28;20055;-81
2023/03/06 11:01:40;;;;;;;2.33;1.50;;;;;;;-0.47;73.27;98840.25;10599089;27;20205;-83
2023/03/06 11:06:42;;;;;;;4.85;1.75;;;;;;;-0.72;72.09;98839.94;10570130;28;20054;-77
2023/03/06 11:11:45;;;;;;;3.80;1.55;;;;;;;-0.83;72.03;98840.91;10599406;28;20058;-79
2023/03/06 11:16:52;;;;;;;2.17;1.20;;;;;;;-0.92;72.46;98840.50;10605697;28;20043;-79
2023/03/06 11:22:02;;;;;;;1.93;1.10;;;;;;;-1.07;72.12;98851.09;10606561;28;20480;-79
2023/03/06 11:27:16;;;;;;;3.03;1.23;;;;;;;-1.13;72.26;98852.91;10592350;27;20035;-79
2023/03/06 11:32:25;;;;;;;5.88;1.20;;;;;;;-1.23;73.28;98852.75;10601895;27;20027;-80
2023/03/06 11:38:11;;;;;;;2.88;1.33;;;;;;;-1.08;72.27;98844.06;10638075;27;20047;-80
2023/03/06 11:43:22;;;;;;;1.88;1.10;;;;;;;-0.96;71.41;98842.09;10467022;28;20041;-79
2023/03/06 11:48:30;;;;;;;2.28;1.13;;;;;;;-0.77;70.57;98846.09;10558133;28;20054;-79
2023/03/06 11:53:34;;;;;;;2.63;1.45;;;;;;;-0.68;70.97;98847.28;10615255;28;20036;-80
2023/03/06 11:58:56;;;;;;;2.65;1.10;;;;;;;-0.51;69.98;98843.69;10609798;28;20039;-79
2023/03/06 12:04:04;;;;;;;2.58;1.00;;;;;;;-0.56;68.80;98847.13;10614062;28;20443;-79
2023/03/06 12:09:12;;;;;;;1.23;0.73;;;;;;;-0.66;68.00;98833.56;10574363;27;20504;-79
2023/03/06 12:14:54;;;;;;;1.27;1.05;;;;;;;-0.69;67.97;98842.16;10597565;28;20510;-78
2023/03/06 12:20:09;;;;;;;1.45;1.10;;;;;;;-0.51;68.59;98843.69;10601141;28;20043;-77
2023/03/06 12:25:36;;;;;;;2.05;0.70;;;;;;;-0.57;69.58;98850.06;10582296;28;20046;-78
2023/03/06 12:30:46;;;;;;;1.75;1.10;;;;;;;-0.71;70.83;98841.56;10597487;28;20118;-78
2023/03/06 12:35:54;;;;;;;2.05;0.90;;;;;;;-0.45;71.34;98843.50;10613489;28;20050;-78
2023/03/06 12:41:02;;;;;;;0.65;0.65;;;;;;;-0.46;71.70;98841.88;10599280;28;20073;-78
2023/03/06 12:46:11;;;;;;;1.17;1.00;;;;;;;-0.45;72.22;98848.88;10619461;27;20042;-78
2023/03/06 12:51:18;;;;;;;1.02;0.80;;;;;;;-0.67;72.04;98840.03;10597389;28;20042;-78
2023/03/06 12:56:21;;;;;;;2.90;0.90;;;;;;;-0.48;72.32;98838.63;10615562;28;20031;-79
2023/03/06 13:01:44;;;;;;;0.93;0.70;;;;;;;-0.35;72.42;98840.91;10595986;28;20428;-79
2023/03/06 13:07:05;;;;;;;0.55;0.52;;;;;;;0.01;72.05;98845.81;10616519;28;20046;-78
2023/03/06 13:12:16;;;;;;;0.80;0.52;;;;;;;-0.24;71.74;98844.50;10614548;28;20042;-79
2023/03/06 13:17:26;;;;;;;1.60;0.80;;;;;;;-0.17;71.71;98828.16;10640656;27;20043;-77
2023/03/06 13:22:29;;;;;;;1.58;0.65;;;;;;;-0.40;71.37;98835.44;10627600;27;20646;-78
2023/03/06 13:28:02;;;;;;;0.75;0.73;;;;;;;-0.56;71.92;98836.34;10621045;28;20045;-78
2023/03/06 13:33:24;;;;;;;1.05;0.60;;;;;;;-0.54;72.31;98838.78;10592160;28;20052;-79
2023/03/06 13:38:35;;;;;;;0.80;0.68;;;;;;;-0.84;72.40;98837.41;10569553;28;20102;-77
2023/03/06 13:43:44;;;;;;;0.95;0.50;;;;;;;-0.96;74.60;98837.50;10618643;27;20050;-78
2023/03/06 13:49:02;;;;;;;1.75;0.80;;;;;;;-1.08;76.13;98842.19;10643615;27;20069;-79
2023/03/06 13:54:42;;;;;;;1.52;0.60;;;;;;;-0.89;76.21;98847.28;10595586;27;20054;-78
2023/03/06 14:00:07;;;;;;;0.80;0.70;;;;;;;-0.94;76.10;98846.16;10604788;28;20504;-79
2023/03/06 14:05:12;;;;;;;0.65;0.50;;;;;;;-0.96;74.76;98850.97;10602993;27;20047;-77
2023/03/06 14:10:22;;;;;;;1.33;0.85;;;;;;;-1.01;75.72;98850.91;10621262;27;20420;-77
2023/03/06 14:15:44;;;;;;;1.38;0.90;;;;;;;-1.12;76.75;98859.09;10624961;27;20043;-76
2023/03/06 14:21:01;;;;;;;1.77;1.08;;;;;;;-1.52;79.72;98860.97;10621045;28;20047;-78
2023/03/06 14:26:06;;;;;;;2.33;1.17;;;;;;;-1.74;81.16;98864.63;10610971;27;20036;-78
2023/03/06 14:31:20;;;;;;;1.73;1.17;;;;;;;-1.74;82.33;98873.50;10587039;27;20515;-79
2023/03/06 14:36:27;;;;;;;1.75;1.08;;;;;;;-1.72;83.07;98873.28;10592295;27;20043;-79
2023/03/06 14:41:31;;;;;;;3.92;0.93;;;;;;;-1.54;83.28;98873.84;10595391;28;20063;-79
2023/03/06 14:46:34;;;;;;;1.92;0.98;;;;;;;-1.52;83.21;98874.41;10591677;28;20044;-78
2023/03/06 14:51:45;;;;;;;1.17;0.90;;;;;;;-1.60;83.00;98880.19;10599144;28;20036;-78
2023/03/06 14:56:51;;;;;;;1.73;1.10;;;;;;;-1.62;83.13;98876.13;10582057;28;20225;-79
2023/03/06 15:02:03;;;;;;;2.07;1.13;;;;;;;-1.87;83.80;98887.28;10599374;28;20047;-79
2023/03/06 15:07:09;;;;;;;1.55;0.93;;;;;;;-2.12;84.33;98885.78;10598532;28;20048;-80
2023/03/06 15:12:18;;;;;;;1.30;0.80;;;;;;;-2.08;85.54;98894.19;10594246;28;20047;-79
2023/03/06 15:17:22;;;;;;;1.20;1.10;;;;;;;-1.94;86.12;98883.94;10593706;28;20418;-78
2023/03/06 15:22:28;;;;;;;2.30;1.10;;;;;;;-2.17;86.07;98887.56;10592398;28;20584;-78
2023/03/06 15:27:31;;;;;;;3.20;1.25;;;;;;;-2.10;85.38;98892.78;10594572;28;20189;-78
2023/03/06 15:32:34;;;;;;;4.40;2.17;;;;;;;-2.37;84.37;98890.69;10595921;27;20039;-78
2023/03/06 15:37:37;;;;;;;10.00;3.33;;;;;;;-2.41;84.36;98905.69;10584346;28;20040;-78
2023/03/06 15:42:41;;;;;;;2.75;1.50;;;;;;;-2.26;84.10;98903.25;10595119;27;20419;-77
2023/03/06 15:47:44;;;;;;;3.47;2.88;;;;;;;-2.37;84.03;98898.75;10602969;28;20042;-78
2023/03/06 15:52:47;;;;;;;3.00;1.77;;;;;;;-2.47;84.90;98906.59;10609116;28;20491;-77
2023/03/06 15:57:58;;;;;;;3.05;1.58;;;;;;;-2.69;84.97;98914.50;10595592;28;20032;-78
2023/03/06 16:03:01;;;;;;;2.70;1.73;;;;;;;-2.81;85.02;98917.22;10623885;27;20055;-78
2023/03/06 16:08:05;;;;;;;3.95;1.58;;;;;;;-2.66;85.50;98908.66;10627329;28;20047;-77
2023/03/06 16:13:14;;;;;;;5.22;1.80;;;;;;;-2.50;85.39;98909.78;10595366;28;20156;-78
2023/03/06 16:18:17;;;;;;;2.03;1.00;;;;;;;-2.41;84.70;98913.72;10623500;27;20621;-77
2023/03/06 16:23:19;;;;;;;2.15;1.77;;;;;;;-2.57;83.79;98915.28;10607376;28;20131;-78
2023/03/06 16:28:21;;;;;;;1.98;1.40;;;;;;;-2.57;83.26;98914.47;10608171;28;20132;-79
2023/03/06 16:33:24;;;;;;;1.63;1.27;;;;;;;-2.38;83.33;98921.31;10572046;28;20432;-78
2023/03/06 16:38:26;;;;;;;1.30;1.17;;;;;;;-2.59;83.05;98919.28;10630512;27;20036;-79
2023/03/06 16:43:29;;;;;;;2.85;1.83;;;;;;;-2.80;83.08;98924.19;10569166;28;20054;-78
2023/03/06 16:48:33;;;;;;;1.90;1.50;;;;;;;-3.04;83.39;98934.16;10604611;28;20155;-78
2023/03/06 16:53:35;;;;;;;3.20;1.48;;;;;;;-3.18;83.83;98934.63;10604007;28;20431;-78
2023/03/06 16:58:39;;;;;;;3.15;1.40;;;;;;;-3.30;84.37;98931.94;10624258;28;20041;-77
2023/03/06 17:03:42;;;;;;;2.47;2.05;;;;;;;-3.52;84.21;98937.06;10602509;28;20035;-78
2023/03/06 17:08:44;;;;;;;2.83;1.25;;;;;;;-3.55;84.38;98932.19;10598054;28;20065;-78
2023/03/06 17:13:47;;;;;;;3.00;1.77;;;;;;;-3.47;84.37;98934.53;10573731;28;20043;-79
2023/03/06 17:18:49;;;;;;;2.42;1.30;;;;;;;-3.45;84.02;98943.16;10605060;28;20044;-77
2023/03/06 17:23:51;;;;;;;3.33;1.70;;;;;;;-3.47;83.68;98939.91;10621570;28;20052;-78
2023/03/06 17:28:54;;;;;;;1.58;1.23;;;;;;;-3.19;82.96;98941.06;10621657;28;20044;-78
2023/03/06 17:33:59;;;;;;;6.03;1.58;;;;;;;-3.28;82.22;98935.25;10603842;28;20039;-78
2023/03/06 17:39:02;;;;;;;1.77;1.40;;;;;;;-3.51;81.60;98941.38;10622542;28;20071;-77
2023/03/06 17:44:10;;;;;;;3.17;1.63;;;;;;;-3.52;82.28;98945.13;10618043;28;20038;-78
2023/03/06 17:49:13;;;;;;;2.72;1.80;;;;;;;-2.91;82.42;98943.84;10631501;28;20046;-79
2023/03/06 17:54:16;;;;;;;3.53;1.80;;;;;;;-2.98;80.73;98942.31;10634548;28;20043;-80
2023/03/06 17:59:18;;;;;;;4.57;1.60;;;;;;;-2.98;80.24;98936.97;10594101;28;20492;-79
2023/03/06 18:04:20;;;;;;;2.78;1.45;;;;;;;-2.95;79.96;98947.22;10605536;27;20046;-81
2023/03/06 18:09:23;;;;;;;3.22;1.70;;;;;;;-3.20;79.71;98944.78;10628880;28;20051;-79
2023/03/06 18:14:25;;;;;;;2.28;1.60;;;;;;;-3.22;79.64;98946.88;10575192;28;20035;-80
2023/03/06 18:19:27;;;;;;;1.80;1.50;;;;;;;-3.42;79.74;98948.06;10602388;27;20046;-80
2023/03/06 18:24:29;;;;;;;4.97;2.20;;;;;;;-3.35;80.29;98943.38;10616695;27;20039;-78
2023/03/06 18:29:32;;;;;;;5.95;2.33;;;;;;;-3.60;79.94;98942.78;10614284;28;20132;-79
2023/03/06 18:34:34;;;;;;;6.15;3.00;;;;;;;-3.73;80.45;98941.13;10590518;28;20032;-77
2023/03/06 18:39:36;;;;;;;4.93;2.00;;;;;;;-3.28;81.13;98943.28;10622972;28;20042;-78
2023/03/06 18:44:42;;;;;;;3.22;1.85;;;;;;;-3.18;79.91;98945.38;10619425;27;20050;-79
2023/03/06 18:49:45;;;;;;;4.15;2.25;;;;;;;-3.45;79.12;98943.16;10608566;28;20036;-80
2023/03/06 18:54:49;;;;;;;3.15;1.85;;;;;;;-3.25;79.76;98942.81;10600297;28;20522;-78
2023/03/06 18:59:54;;;;;;;2.90;1.75;;;;;;;-3.17;78.97;98936.28;10620218;28;20054;-78
2023/03/06 19:04:57;;;;;;;2.63;1.60;;;;;;;-3.49;78.33;98931.25;10558447;28;20047;-78
2023/03/06 19:09:59;;;;;;;3.05;1.85;;;;;;;-3.64;79.22;98944.31;10589299;27;20043;-78
2023/03/06 19:15:02;;;;;;;2.60;1.95;;;;;;;-3.78;79.53;98946.38;10591698;28;20512;-78
2023/03/06 19:20:05;;;;;;;2.75;2.25;;;;;;;-3.62;79.95;98947.56;10587510;28;20409;-78
2023/03/06 19:25:08;;;;;;;5.18;2.38;;;;;;;-3.88;80.14;98947.97;10617676;27;20051;-78
2023/03/06 19:30:13;;;;;;;2.60;1.98;;;;;;;-3.97;80.55;98953.66;10623082;28;20043;-80
2023/03/06 19:35:16;;;;;;;4.82;1.80;;;;;;;-4.01;80.71;98947.09;10605774;27;20043;-79
2023/03/06 19:40:18;;;;;;;3.78;2.22;;;;;;;-3.83;80.67;98950.75;10599236;28;20053;-80
2023/03/06 19:45:21;;;;;;;3.50;1.98;;;;;;;-3.95;80.83;98943.53;10600786;27;20073;-79
2023/03/06 19:50:27;;;;;;;5.38;2.45;;;;;;;-4.11;81.43;98952.22;10621839;28;20132;-78
2023/03/06 19:55:30;;;;;;;3.10;2.17;;;;;;;-3.84;81.90;98951.81;10616139;27;20440;-79
2023/03/06 20:00:33;;;;;;;3.58;1.85;;;;;;;-4.15;81.76;98948.34;10608751;27;20031;-80
2023/03/06 20:05:35;;;;;;;5.03;2.50;;;;;;;-3.93;82.09;98948.66;10628948;27;20049;-79
2023/03/06 20:10:38;;;;;;;3.08;2.10;;;;;;;-3.93;81.55;98943.28;10616969;27;20051;-78
2023/03/06 20:15:40;;;;;;;3.63;2.00;;;;;;;-4.20;81.53;98945.53;10631064;27;20036;-78
2023/03/06 20:20:42;;;;;;;2.90;2.08;;;;;;;-4.16;81.15;98953.94;10610581;28;20047;-80
2023/03/06 20:25:44;;;;;;;4.30;2.22;;;;;;;-4.27;81.38;98945.63;10632801;27;20048;-79
2023/03/06 20:30:46;;;;;;;6.30;2.67;;;;;;;-4.21;81.52;98954.59;10632340;27;20044;-76
2023/03/06 20:35:49;;;;;;;6.35;3.17;;;;;;;-4.09;81.48;98950.13;10631427;27;20049;-76
2023/03/06 20:40:54;;;;;;;5.40;2.83;;;;;;;-4.37;81.81;98941.84;10619650;28;20040;-78
2023/03/06 20:46:01;;;;;;;5.22;2.83;;;;;;;-4.41;82.43;98949.50;10607238;28;20062;-78
2023/03/06 20:51:14;;;;;;;4.55;3.10;;;;;;;-4.46;82.98;98951.25;10606341;28;20047;-78
2023/03/06 20:56:19;;;;;;;4.18;2.70;;;;;;;-4.36;82.75;98948.81;10608398;28;20106;-79
2023/03/06 21:01:27;;;;;;;6.93;3.40;;;;;;;-4.33;82.56;98954.56;10610777;28;20035;-79
2023/03/06 21:06:30;;;;;;;5.18;3.30;;;;;;;-4.31;82.17;98955.16;10607794;28;20052;-77
2023/03/06 21:11:33;;;;;;;4.65;3.33;;;;;;;-4.32;82.18;98963.41;10607387;28;20528;-79
2023/03/06 21:16:35;;;;;;;6.80;3.65;;;;;;;-4.53;82.57;98955.84;10589698;28;20040;-78
2023/03/06 21:21:37;;;;;;;7.35;4.22;;;;;;;-4.47;83.25;98965.66;10588570;28;20427;-81
2023/03/06 21:26:40;;;;;;;9.10;4.60;;;;;;;-4.40;84.19;98967.22;10556307;28;20039;-78
2023/03/06 21:31:42;;;;;;;14.68;6.88;;;;;;;-4.25;83.27;98970.31;10617900;28;20048;-77
2023/03/06 21:36:44;;;;;;;22.88;10.48;;;;;;;-4.14;83.40;98967.91;10593563;28;20492;-77
2023/03/06 21:41:46;;;;;;;16.83;8.02;;;;;;;-4.34;83.26;98971.69;10619097;28;20134;-77
2023/03/06 21:46:48;;;;;;;13.60;6.00;;;;;;;-4.69;83.47;98976.00;10621136;28;20039;-77
2023/03/06 21:51:51;;;;;;;7.45;4.53;;;;;;;-4.81;83.81;98973.25;10621643;28;20061;-78
2023/03/06 21:56:54;;;;;;;13.20;4.47;;;;;;;-4.72;84.26;98969.22;10626045;28;20046;-78
2023/03/06 22:01:56;;;;;;;6.63;3.83;;;;;;;-4.67;83.31;98968.59;10615248;27;20492;-78
2023/03/06 22:06:58;;;;;;;5.65;3.30;;;;;;;-4.79;83.47;98975.72;10620307;28;20035;-79
2023/03/06 22:12:04;;;;;;;6.13;3.85;;;;;;;-4.84;82.61;98973.72;10616684;28;20036;-77
2023/03/06 22:17:06;;;;;;;5.85;3.35;;;;;;;-4.92;83.05;98982.00;10633409;27;20042;-78
2023/03/06 22:22:08;;;;;;;6.78;3.78;;;;;;;-5.01;82.73;98978.00;10596985;28;20050;-77
2023/03/06 22:27:10;;;;;;;7.68;4.22;;;;;;;-4.95;83.30;98969.09;10587379;28;20047;-76
2023/03/06 22:32:12;;;;;;;10.90;4.68;;;;;;;-4.85;82.88;98980.09;10609348;28;20421;-78
2023/03/06 22:37:15;;;;;;;14.18;5.55;;;;;;;-4.98;82.25;98973.03;10611756;28;20039;-78
2023/03/06 22:42:17;;;;;;;9.57;4.07;;;;;;;-4.90;81.57;98978.06;10594586;28;20042;-78
2023/03/06 22:47:19;;;;;;;6.68;3.38;;;;;;;-4.98;81.43;98981.03;10599156;28;20043;-77
2023/03/06 22:52:21;;;;;;;6.45;3.38;;;;;;;-5.04;81.28;98976.56;10610923;28;20039;-78
2023/03/06 22:57:23;;;;;;;6.60;3.40;;;;;;;-5.14;81.40;98983.47;10586707;28;20075;-77
2023/03/06 23:02:31;;;;;;;5.60;3.05;;;;;;;-5.20;80.95;98974.50;10594201;28;20035;-78
2023/03/06 23:07:34;;;;;;;7.90;3.60;;;;;;;-5.18;81.13;98975.91;10607886;28;20410;-78
2023/03/06 23:12:36;;;;;;;5.55;3.30;;;;;;;-5.25;80.33;98974.31;10614594;27;20040;-78
2023/03/06 23:17:57;;;;;;;5.03;3.17;;;;;;;-5.39;80.73;98970.09;10596655;28;20043;-78
2023/03/06 23:23:17;;;;;;;3.03;2.67;;;;;;;-5.08;80.43;98961.19;10606174;28;20043;-78
2023/03/06 23:28:19;;;;;;;3.40;2.75;;;;;;;-5.26;80.08;98972.69;10574673;28;20035;-78
2023/03/06 23:33:22;;;;;;;4.07;2.58;;;;;;;-5.25;79.77;98972.44;10592013;27;20047;-77
2023/03/06 23:38:24;;;;;;;4.22;2.92;;;;;;;-5.40;79.79;98979.16;10610742;28;20035;-77
2023/03/06 23:43:27;;;;;;;4.10;2.53;;;;;;;-5.47;79.70;98981.91;10591047;28;20403;-77